Time;durP1;ratioP1;P1;durP2;ratioP2;P2;SDS_P1;SDS_P2;PMS_P1;PMS_P2;Temp;Humidity;BMP_temperature;BMP_pressure;BME280_temperature;BME280_humidity;BME280_pressure;Samples;Min_cycle;Max_cycle;Signal;HPM_P1;HPM_P2
2022/10/05 00:01:29;;;;;;;4.25;2.15;;;14.50;99.90;;;;;;5005581;28;20037;-74
2022/10/05 00:04:17;;;;;;;6.72;2.08;;;14.50;99.90;;;;;;5022311;28;20041;-74
2022/10/05 00:07:07;;;;;;;5.70;2.70;;;14.50;99.90;;;;;;5021981;28;20674;-74
2022/10/05 00:09:33;;;;;;;4.13;2.17;;;14.50;99.90;;;;;;5021053;28;20056;-74
2022/10/05 00:12:15;;;;;;;3.75;1.92;;;14.50;99.90;;;;;;5017947;28;20033;-75
2022/10/05 00:14:42;;;;;;;4.40;2.03;;;14.50;99.90;;;;;;4999931;28;20038;-74
2022/10/05 00:17:14;;;;;;;4.38;2.17;;;14.60;99.90;;;;;;5020822;28;20037;-74
2022/10/05 00:19:42;;;;;;;5.45;1.80;;;14.60;99.90;;;;;;5005263;28;20617;-74
2022/10/05 00:22:08;;;;;;;4.45;2.00;;;14.60;99.90;;;;;;5021499;28;20041;-74
2022/10/05 00:24:33;;;;;;;4.10;2.17;;;14.60;99.90;;;;;;5023006;28;20452;-74
2022/10/05 00:27:00;;;;;;;4.97;1.77;;;14.60;99.90;;;;;;5017602;28;20025;-74
2022/10/05 00:29:26;;;;;;;3.42;1.63;;;14.60;99.90;;;;;;5021402;28;20045;-74
2022/10/05 00:31:52;;;;;;;6.43;2.40;;;14.60;99.90;;;;;;5005971;28;20510;-74
2022/10/05 00:34:18;;;;;;;4.40;2.17;;;14.60;99.90;;;;;;5006307;28;20033;-74
2022/10/05 00:36:44;;;;;;;3.28;1.65;;;14.60;99.90;;;;;;5020093;28;20041;-74
2022/10/05 00:39:10;;;;;;;4.63;2.15;;;14.60;99.90;;;;;;5022319;28;20033;-74
2022/10/05 00:42:12;;;;;;;3.25;1.60;;;14.60;99.90;;;;;;5021303;28;20376;-74
2022/10/05 00:44:52;;;;;;;2.90;1.50;;;14.60;99.90;;;;;;5020470;28;20045;-74
2022/10/05 00:47:46;;;;;;;5.85;1.70;;;14.60;99.90;;;;;;5021454;28;20033;-74
2022/10/05 00:50:48;;;;;;;4.43;1.63;;;14.60;99.90;;;;;;5021542;28;20038;-74
2022/10/05 00:53:54;;;;;;;3.38;1.83;;;14.60;99.90;;;;;;5020966;28;20547;-74
2022/10/05 00:56:58;;;;;;;5.25;2.20;;;14.60;99.90;;;;;;4998578;28;20091;-74
2022/10/05 00:59:39;;;;;;;2.42;1.42;;;14.60;99.90;;;;;;5026984;28;20487;-74
2022/10/05 01:02:32;;;;;;;4.13;2.10;;;14.60;99.90;;;;;;5037332;28;20038;-74
2022/10/05 01:05:06;;;;;;;4.53;1.73;;;14.60;99.90;;;;;;5009733;28;20112;-74
2022/10/05 01:07:47;;;;;;;5.43;1.90;;;14.60;99.90;;;;;;5008351;28;20184;-73
2022/10/05 01:10:29;;;;;;;6.30;2.10;;;14.60;99.90;;;;;;5026570;28;20072;-74
2022/10/05 01:13:07;;;;;;;3.95;1.67;;;14.60;99.90;;;;;;5023394;28;20504;-75
2022/10/05 01:16:03;;;;;;;2.60;1.52;;;14.60;99.90;;;;;;5042289;28;20084;-74
2022/10/05 01:18:45;;;;;;;3.65;1.83;;;14.60;99.90;;;;;;5025038;28;20029;-74
2022/10/05 01:21:25;;;;;;;3.55;2.00;;;14.60;99.90;;;;;;5040391;28;20052;-74
2022/10/05 01:24:04;;;;;;;5.20;1.80;;;14.60;99.90;;;;;;5025562;28;20053;-74
2022/10/05 01:27:08;;;;;;;3.20;1.60;;;14.60;99.90;;;;;;5024783;28;21411;-74
2022/10/05 01:29:39;;;;;;;3.63;1.73;;;14.60;99.90;;;;;;5006427;28;20067;-74
2022/10/05 01:32:30;;;;;;;4.38;2.00;;;14.60;99.90;;;;;;5023143;28;20049;-74
2022/10/05 01:35:03;;;;;;;5.28;1.73;;;14.60;99.90;;;;;;5025868;28;20049;-74
2022/10/05 01:37:43;;;;;;;2.88;1.80;;;14.60;99.90;;;;;;5027681;28;20183;-74
2022/10/05 01:40:43;;;;;;;7.15;2.63;;;14.60;99.90;;;;;;5022199;28;20102;-74
2022/10/05 01:43:20;;;;;;;5.35;2.35;;;14.60;99.90;;;;;;5022873;28;20041;-74
2022/10/05 01:46:06;;;;;;;4.28;1.92;;;14.50;99.90;;;;;;5021614;28;20506;-74
2022/10/05 01:49:04;;;;;;;3.67;2.03;;;14.60;99.90;;;;;;5022933;28;20044;-74
2022/10/05 01:51:47;;;;;;;4.68;1.67;;;14.60;99.90;;;;;;5006378;28;20779;-74
2022/10/05 01:54:22;;;;;;;7.50;2.40;;;14.60;99.90;;;;;;5007594;28;20090;-74
2022/10/05 01:56:56;;;;;;;6.13;2.35;;;14.60;99.90;;;;;;5023168;28;20041;-74
2022/10/05 01:59:24;;;;;;;4.45;1.90;;;14.60;99.90;;;;;;5021862;28;20048;-74
2022/10/05 02:02:00;;;;;;;5.10;2.30;;;14.60;99.90;;;;;;5019976;28;20052;-74
2022/10/05 02:04:26;;;;;;;;;;;14.60;99.90;;;;;;5024329;28;20033;-74
2022/10/05 02:06:52;;;;;;;4.72;2.38;;;14.60;99.90;;;;;;5024359;28;20007;-74
2022/10/05 02:09:28;;;;;;;3.88;1.67;;;14.60;99.90;;;;;;5008285;28;20046;-74
2022/10/05 02:12:08;;;;;;;5.10;2.58;;;14.60;99.90;;;;;;5022737;28;20451;-74
2022/10/05 02:14:39;;;;;;;4.60;1.80;;;14.60;99.90;;;;;;5007604;28;20106;-75
2022/10/05 02:17:18;;;;;;;4.88;2.30;;;14.60;99.90;;;;;;5026001;28;20046;-74
2022/10/05 02:19:51;;;;;;;4.50;2.15;;;14.50;99.90;;;;;;5007881;28;20041;-74
2022/10/05 02:22:34;;;;;;;3.60;1.88;;;14.50;99.90;;;;;;5022428;28;20041;-74
2022/10/05 02:25:11;;;;;;;4.85;2.47;;;14.50;99.90;;;;;;5033726;28;20042;-74
2022/10/05 02:27:44;;;;;;;3.90;1.85;;;14.50;99.90;;;;;;5024195;28;20196;-74
2022/10/05 02:30:10;;;;;;;4.40;2.15;;;14.50;99.90;;;;;;5021836;28;20048;-74
2022/10/05 02:32:48;;;;;;;6.47;2.78;;;14.50;99.90;;;;;;5005349;28;20073;-74
2022/10/05 02:35:16;;;;;;;4.07;2.10;;;14.50;99.90;;;;;;5022659;28;20037;-74
2022/10/05 02:37:56;;;;;;;4.78;2.47;;;14.40;99.90;;;;;;5007940;28;20111;-74
2022/10/05 02:40:32;;;;;;;5.82;2.47;;;14.40;99.90;;;;;;5022400;28;20052;-74
2022/10/05 02:43:13;;;;;;;5.18;2.65;;;14.40;99.90;;;;;;5021768;28;20076;-74
2022/10/05 02:45:50;;;;;;;6.50;2.97;;;14.40;99.90;;;;;;5020917;28;20045;-74
2022/10/05 02:48:22;;;;;;;4.07;2.20;;;14.40;99.90;;;;;;5005440;28;20487;-74
2022/10/05 02:51:21;;;;;;;5.88;2.60;;;14.40;99.90;;;;;;5023760;28;20554;-75
2022/10/05 02:54:26;;;;;;;5.07;2.13;;;14.40;99.90;;;;;;5024354;28;20124;-74
2022/10/05 02:57:11;;;;;;;6.78;2.78;;;14.40;99.90;;;;;;5023062;28;20037;-74
2022/10/05 02:59:42;;;;;;;6.47;2.63;;;14.30;99.90;;;;;;5022629;28;20072;-74
2022/10/05 03:02:25;;;;;;;7.25;2.70;;;14.30;99.90;;;;;;5022621;28;20056;-74
2022/10/05 03:05:13;;;;;;;4.55;2.13;;;14.40;99.90;;;;;;5022315;28;20124;-74
2022/10/05 03:07:56;;;;;;;5.68;2.13;;;14.40;99.90;;;;;;5023068;28;20128;-74
2022/10/05 03:10:42;;;;;;;3.17;2.00;;;14.40;99.90;;;;;;5022014;28;20042;-74
2022/10/05 03:13:49;;;;;;;7.93;2.30;;;14.40;99.90;;;;;;5005924;28;20064;-75
2022/10/05 03:16:30;;;;;;;4.13;2.08;;;14.40;99.90;;;;;;5005744;28;20048;-74
2022/10/05 03:19:18;;;;;;;5.22;2.40;;;14.40;99.90;;;;;;5022342;28;20074;-74
2022/10/05 03:22:04;;;;;;;6.82;3.33;;;14.40;99.90;;;;;;5005114;28;20144;-74
2022/10/05 03:24:41;;;;;;;3.08;1.67;;;14.40;99.90;;;;;;5024090;28;20125;-74
2022/10/05 03:27:39;;;;;;;5.05;1.80;;;14.30;99.90;;;;;;5001019;28;20450;-74
2022/10/05 03:30:14;;;;;;;4.95;2.17;;;14.40;99.90;;;;;;5019990;28;20051;-74
2022/10/05 03:33:24;;;;;;;7.70;2.88;;;14.40;99.90;;;;;;5005360;28;20413;-75
2022/10/05 03:36:23;;;;;;;4.00;2.05;;;14.30;99.90;;;;;;4981276;28;20056;-74
2022/10/05 03:39:19;;;;;;;5.65;2.65;;;14.40;99.90;;;;;;5020078;28;20071;-74
2022/10/05 03:41:53;;;;;;;3.47;1.83;;;14.40;99.90;;;;;;5020618;28;20065;-74
2022/10/05 03:44:36;;;;;;;6.63;2.60;;;14.40;99.90;;;;;;5024028;28;20049;-74
2022/10/05 03:47:24;;;;;;;5.30;2.13;;;14.40;99.90;;;;;;5023669;28;20041;-74
2022/10/05 03:49:55;;;;;;;4.53;2.03;;;14.40;99.90;;;;;;5020758;28;20037;-74
2022/10/05 03:52:33;;;;;;;6.07;2.10;;;14.40;99.90;;;;;;5022656;28;20053;-74
2022/10/05 03:55:04;;;;;;;3.35;1.88;;;14.40;99.90;;;;;;5024315;28;20076;-74
2022/10/05 03:57:37;;;;;;;3.15;1.65;;;14.40;99.90;;;;;;5014749;28;20123;-74
2022/10/05 04:00:16;;;;;;;5.03;2.22;;;14.30;99.90;;;;;;5019233;28;20120;-74
2022/10/05 04:03:03;;;;;;;4.25;1.77;;;14.30;99.90;;;;;;5007385;28;20521;-74
2022/10/05 04:05:35;;;;;;;4.03;2.22;;;14.40;99.90;;;;;;5024098;28;20104;-74
2022/10/05 04:08:15;;;;;;;4.75;2.33;;;14.40;99.90;;;;;;5022740;28;20057;-74
2022/10/05 04:10:58;;;;;;;6.28;2.40;;;14.40;99.90;;;;;;5022106;28;20053;-74
2022/10/05 04:13:49;;;;;;;4.45;2.10;;;14.30;99.90;;;;;;5015716;28;20053;-74
2022/10/05 04:16:26;;;;;;;4.70;1.98;;;14.40;99.90;;;;;;5020377;28;20496;-74
2022/10/05 04:19:07;;;;;;;4.38;1.95;;;14.40;99.90;;;;;;5006598;28;20025;-74
2022/10/05 04:21:39;;;;;;;3.72;1.90;;;14.30;99.90;;;;;;5023865;28;20037;-74
2022/10/05 04:24:18;;;;;;;5.28;2.25;;;14.40;99.90;;;;;;5024234;28;20409;-74
2022/10/05 04:26:53;;;;;;;3.90;2.10;;;14.40;99.90;;;;;;5023064;28;20041;-74
2022/10/05 04:29:40;;;;;;;3.33;1.75;;;14.30;99.90;;;;;;5003130;28;20041;-74
2022/10/05 04:32:21;;;;;;;6.35;2.50;;;14.40;99.90;;;;;;5009720;28;20074;-74
2022/10/05 04:35:15;;;;;;;4.55;1.80;;;14.30;99.90;;;;;;5026467;28;20048;-75
2022/10/05 04:37:58;;;;;;;5.25;2.22;;;14.30;99.90;;;;;;5024994;28;20037;-74
2022/10/05 04:40:52;;;;;;;3.50;1.90;;;14.30;99.90;;;;;;5025403;28;20041;-74
2022/10/05 04:43:35;;;;;;;4.30;2.20;;;14.30;99.90;;;;;;5026589;28;20033;-74
2022/10/05 04:46:22;;;;;;;4.20;2.20;;;14.40;99.90;;;;;;5009195;28;20045;-74
2022/10/05 04:48:55;;;;;;;5.72;1.90;;;14.30;99.90;;;;;;5009273;28;20419;-74
2022/10/05 04:51:38;;;;;;;3.67;2.05;;;14.30;99.90;;;;;;5025660;28;20495;-74
2022/10/05 04:54:11;;;;;;;5.00;2.60;;;14.30;99.90;;;;;;5024688;28;20453;-75
2022/10/05 04:56:47;;;;;;;4.85;2.40;;;14.30;99.90;;;;;;5023592;28;20401;-74
2022/10/05 04:59:37;;;;;;;5.50;2.08;;;14.30;99.90;;;;;;5022152;28;20103;-74
2022/10/05 05:02:20;;;;;;;8.07;2.08;;;14.30;99.90;;;;;;5022056;28;20124;-75
2022/10/05 05:05:16;;;;;;;6.05;2.78;;;14.30;99.90;;;;;;5026876;28;20611;-74
2022/10/05 05:07:59;;;;;;;5.88;2.40;;;14.30;99.90;;;;;;5025419;28;20594;-74
2022/10/05 05:10:40;;;;;;;6.15;2.88;;;14.30;99.90;;;;;;5025693;28;20087;-74
2022/10/05 05:13:37;;;;;;;5.82;2.35;;;14.30;99.90;;;;;;5023116;28;20064;-74
2022/10/05 05:16:34;;;;;;;5.20;2.42;;;14.30;99.90;;;;;;5007186;28;21450;-74
2022/10/05 05:19:36;;;;;;;4.47;1.90;;;14.20;99.90;;;;;;5024791;28;20041;-74
2022/10/05 05:22:29;;;;;;;6.47;2.50;;;14.20;99.90;;;;;;5008423;28;20120;-74
2022/10/05 05:25:16;;;;;;;6.47;2.10;;;14.20;99.90;;;;;;5023940;28;20041;-74
2022/10/05 05:28:04;;;;;;;4.20;2.38;;;14.20;99.90;;;;;;5023618;28;20080;-74
2022/10/05 05:30:51;;;;;;;6.00;2.58;;;14.20;99.90;;;;;;5015804;28;20037;-74
2022/10/05 05:33:30;;;;;;;5.00;2.33;;;14.10;99.90;;;;;;5023889;28;20521;-74
2022/10/05 05:36:16;;;;;;;5.35;2.30;;;14.10;99.90;;;;;;5024161;28;20041;-74
2022/10/05 05:39:06;;;;;;;4.60;2.33;;;14.10;99.90;;;;;;5014145;28;20045;-75
2022/10/05 05:41:55;;;;;;;6.40;2.58;;;14.10;99.90;;;;;;5014958;28;20148;-74
2022/10/05 05:44:25;;;;;;;6.25;2.72;;;14.10;99.90;;;;;;5024065;28;20068;-74
2022/10/05 05:47:06;;;;;;;5.00;2.90;;;14.10;99.90;;;;;;5032765;28;20152;-74
2022/10/05 05:49:50;;;;;;;5.00;2.65;;;14.10;99.90;;;;;;5022328;28;20483;-76
2022/10/05 05:52:22;;;;;;;6.00;2.67;;;14.10;99.90;;;;;;5022254;28;20037;-75
2022/10/05 05:55:03;;;;;;;5.03;2.97;;;14.10;99.90;;;;;;5022723;28;20048;-75
2022/10/05 05:57:37;;;;;;;5.60;2.45;;;14.00;99.90;;;;;;5018589;28;20038;-74
2022/10/05 06:00:14;;;;;;;5.93;3.03;;;14.10;99.90;;;;;;5002626;28;20038;-74
2022/10/05 06:02:46;;;;;;;5.65;2.97;;;14.00;99.90;;;;;;5021494;28;20128;-75
2022/10/05 06:05:26;;;;;;;5.75;2.63;;;14.00;99.90;;;;;;5022344;28;20040;-75
2022/10/05 06:07:54;;;;;;;6.68;2.75;;;14.00;99.90;;;;;;5022724;28;20148;-75
2022/10/05 06:10:41;;;;;;;7.03;3.15;;;14.00;99.90;;;;;;5020448;28;20042;-75
2022/10/05 06:13:36;;;;;;;5.18;2.67;;;14.10;99.90;;;;;;5020078;28;20046;-75
2022/10/05 06:16:41;;;;;;;4.47;2.67;;;14.10;99.90;;;;;;5037150;28;20396;-74
2022/10/05 06:19:16;;;;;;;6.65;2.55;;;14.10;99.90;;;;;;5022394;28;20038;-74
2022/10/05 06:22:04;;;;;;;5.47;2.63;;;14.00;99.90;;;;;;5026621;28;20056;-74
2022/10/05 06:24:43;;;;;;;5.35;2.53;;;14.00;99.90;;;;;;5024029;28;20288;-74
2022/10/05 06:27:26;;;;;;;6.43;2.92;;;14.00;99.90;;;;;;5015002;28;20526;-74
2022/10/05 06:30:42;;;;;;;4.80;2.47;;;14.10;99.90;;;;;;5016734;28;20042;-74
2022/10/05 06:33:49;;;;;;;8.77;2.90;;;14.10;99.90;;;;;;5003216;28;20045;-74
2022/10/05 06:36:43;;;;;;;7.93;2.85;;;14.10;99.90;;;;;;5023592;28;20034;-74
2022/10/05 06:39:54;;;;;;;5.70;3.00;;;14.10;99.90;;;;;;5023984;28;20060;-74
2022/10/05 06:42:40;;;;;;;4.78;2.38;;;14.10;99.90;;;;;;5023203;28;20061;-74
2022/10/05 06:45:11;;;;;;;5.85;3.17;;;14.10;99.90;;;;;;4993876;28;20060;-74
2022/10/05 06:47:51;;;;;;;6.82;3.20;;;14.10;99.90;;;;;;5020426;28;20128;-74
2022/10/05 06:50:34;;;;;;;8.70;3.00;;;14.10;99.90;;;;;;5008885;28;20100;-74
2022/10/05 06:53:09;;;;;;;6.60;2.78;;;14.20;99.90;;;;;;5023382;28;20483;-74
2022/10/05 06:55:52;;;;;;;6.47;3.47;;;14.20;99.90;;;;;;5036413;28;20368;-74
2022/10/05 06:58:30;;;;;;;5.95;2.92;;;14.20;99.90;;;;;;5022383;28;20132;-74
2022/10/05 07:01:09;;;;;;;8.25;3.72;;;14.20;99.90;;;;;;5021769;28;20041;-74
2022/10/05 07:03:41;;;;;;;6.40;3.22;;;14.20;99.90;;;;;;4984440;28;20041;-74
2022/10/05 07:06:19;;;;;;;7.13;3.08;;;14.20;99.90;;;;;;4996845;28;20371;-74
2022/10/05 07:09:13;;;;;;;6.38;3.30;;;14.20;99.90;;;;;;4981481;28;20204;-74
2022/10/05 07:12:01;;;;;;;4.88;2.65;;;14.20;99.90;;;;;;4991511;28;20481;-74
2022/10/05 07:14:57;;;;;;;5.00;2.42;;;14.20;99.90;;;;;;5018557;28;20045;-74
2022/10/05 07:17:46;;;;;;;5.72;2.83;;;14.20;99.90;;;;;;5030036;28;20508;-74
2022/10/05 07:20:32;;;;;;;6.43;2.80;;;14.20;99.90;;;;;;5019327;28;20060;-74
2022/10/05 07:23:30;;;;;;;8.05;2.80;;;14.20;99.90;;;;;;5018443;28;20132;-73
2022/10/05 07:26:39;;;;;;;5.53;2.92;;;14.30;99.90;;;;;;5008881;28;20042;-74
2022/10/05 07:29:18;;;;;;;5.38;3.13;;;14.30;99.90;;;;;;5002654;28;20107;-74
2022/10/05 07:31:47;;;;;;;5.28;2.65;;;14.30;99.90;;;;;;5020076;28;20767;-73
2022/10/05 07:34:46;;;;;;;5.90;2.70;;;14.30;99.90;;;;;;5022819;28;20068;-74
2022/10/05 07:40:21;;;;;;;4.88;2.55;;;14.40;99.90;;;;;;5018235;28;20050;-74
2022/10/05 07:43:19;;;;;;;5.50;3.00;;;14.40;99.90;;;;;;5019808;28;20037;-74
2022/10/05 07:46:06;;;;;;;4.65;2.67;;;14.40;99.90;;;;;;5017858;28;20052;-73
2022/10/05 07:48:40;;;;;;;5.28;2.85;;;14.40;99.90;;;;;;5017161;28;20080;-74
2022/10/05 07:51:25;;;;;;;4.88;2.50;;;14.40;99.90;;;;;;5019462;28;20042;-74
2022/10/05 07:54:03;;;;;;;4.47;2.40;;;14.50;99.90;;;;;;5036785;28;20060;-74
2022/10/05 07:56:37;;;;;;;7.07;2.60;;;14.50;99.90;;;;;;5016033;28;20146;-74
2022/10/05 07:59:10;;;;;;;4.75;2.30;;;14.50;99.90;;;;;;5002162;28;20055;-74
2022/10/05 08:01:40;;;;;;;3.95;2.22;;;14.50;99.90;;;;;;5001014;28;20033;-74
2022/10/05 08:04:26;;;;;;;5.53;2.80;;;14.60;99.90;;;;;;5018182;28;20050;-74
2022/10/05 08:07:11;;;;;;;4.35;2.30;;;14.60;99.90;;;;;;5020434;28;20483;-74
2022/10/05 08:10:03;;;;;;;6.25;2.80;;;14.60;99.90;;;;;;5004677;28;20460;-74
2022/10/05 08:12:37;;;;;;;4.85;2.53;;;14.60;99.90;;;;;;5023952;28;20517;-74
2022/10/05 08:15:05;;;;;;;5.60;2.90;;;14.70;99.90;;;;;;5029690;28;20579;-74
2022/10/05 08:17:52;;;;;;;4.25;2.33;;;14.70;99.90;;;;;;5009088;28;20794;-74
2022/10/05 08:20:36;;;;;;;7.88;2.60;;;14.80;99.90;;;;;;5023100;28;20125;-74
2022/10/05 08:23:19;;;;;;;4.43;2.50;;;14.90;99.90;;;;;;5004935;28;20507;-74
2022/10/05 08:25:55;;;;;;;5.57;2.22;;;14.90;99.90;;;;;;5024114;28;20050;-74
2022/10/05 08:28:37;;;;;;;5.15;2.50;;;14.90;99.90;;;;;;5019429;28;20072;-74
2022/10/05 08:31:15;;;;;;;5.38;2.75;;;14.90;99.90;;;;;;5021234;28;20053;-74
2022/10/05 08:34:19;;;;;;;6.30;2.95;;;15.00;99.90;;;;;;5019541;28;20051;-74
2022/10/05 08:36:56;;;;;;;4.70;2.40;;;15.10;99.90;;;;;;5017158;28;20056;-74
2022/10/05 08:39:27;;;;;;;4.78;1.85;;;15.10;99.90;;;;;;5019867;28;20033;-74
2022/10/05 08:42:22;;;;;;;3.55;2.20;;;15.10;99.90;;;;;;5019083;28;20041;-74
2022/10/05 08:45:08;;;;;;;3.97;1.90;;;15.10;99.90;;;;;;5016951;28;20391;-74
2022/10/05 08:47:35;;;;;;;3.97;2.33;;;15.20;99.90;;;;;;5018624;28;20057;-74
2022/10/05 08:50:25;;;;;;;4.55;2.42;;;15.20;99.90;;;;;;5004591;28;22357;-74
2022/10/05 08:52:51;;;;;;;3.33;2.00;;;15.20;99.90;;;;;;5018142;28;20133;-74
2022/10/05 08:55:42;;;;;;;3.95;2.13;;;15.30;99.90;;;;;;5002641;28;20040;-74
2022/10/05 08:58:22;;;;;;;4.20;1.85;;;15.30;99.90;;;;;;5019640;28;20548;-74
2022/10/05 09:01:12;;;;;;;4.30;2.10;;;15.30;99.90;;;;;;5015216;28;20881;-74
2022/10/05 09:04:02;;;;;;;4.35;2.33;;;15.30;99.90;;;;;;5013564;28;20037;-73
2022/10/05 09:07:06;;;;;;;5.07;1.90;;;15.40;99.90;;;;;;5013197;28;20088;-73
2022/10/05 09:09:57;;;;;;;3.45;1.95;;;15.30;99.90;;;;;;5016173;28;20131;-73
2022/10/05 09:12:25;;;;;;;3.45;1.98;;;15.40;99.90;;;;;;5015463;28;20069;-73
2022/10/05 09:15:06;;;;;;;3.10;1.73;;;15.40;99.90;;;;;;5002653;28;20042;-73
2022/10/05 09:18:14;;;;;;;2.72;1.48;;;15.40;99.90;;;;;;5019372;28;20041;-74
2022/10/05 09:20:53;;;;;;;3.33;1.85;;;15.50;99.90;;;;;;5020324;28;20049;-73
2022/10/05 09:23:36;;;;;;;3.58;2.30;;;15.50;99.90;;;;;;5037173;28;20034;-73
2022/10/05 09:26:47;;;;;;;4.22;1.98;;;15.40;99.90;;;;;;5018925;28;20106;-73
2022/10/05 09:29:37;;;;;;;2.78;1.63;;;15.50;99.90;;;;;;5018587;28;20033;-73
2022/10/05 09:32:07;;;;;;;3.13;1.75;;;15.50;99.90;;;;;;5017008;28;20104;-72
2022/10/05 09:34:46;;;;;;;3.83;1.98;;;15.50;99.90;;;;;;5001001;28;20064;-73
2022/10/05 09:37:25;;;;;;;3.67;1.73;;;15.50;99.90;;;;;;5011765;28;20053;-73
2022/10/05 09:40:06;;;;;;;2.92;1.60;;;15.50;99.90;;;;;;5017225;28;20048;-74
2022/10/05 09:43:13;;;;;;;2.47;1.33;;;15.50;99.90;;;;;;5007319;28;20049;-73
2022/10/05 09:46:27;;;;;;;3.08;1.48;;;15.60;99.90;;;;;;5008929;28;20088;-74
2022/10/05 09:49:23;;;;;;;4.28;1.50;;;15.60;99.90;;;;;;5021590;28;20502;-74
2022/10/05 09:52:06;;;;;;;2.13;1.20;;;15.60;99.90;;;;;;5006465;28;20049;-74
2022/10/05 09:54:49;;;;;;;2.67;1.42;;;15.70;99.90;;;;;;5017337;28;20107;-73
2022/10/05 09:57:44;;;;;;;2.53;1.73;;;15.70;99.90;;;;;;5020472;28;20037;-73
2022/10/05 10:00:12;;;;;;;2.40;1.50;;;15.70;99.90;;;;;;5012717;28;20521;-74
2022/10/05 10:03:12;;;;;;;2.95;1.65;;;15.70;99.90;;;;;;5020367;28;20067;-73
2022/10/05 10:05:56;;;;;;;6.13;1.88;;;15.70;99.90;;;;;;5016987;28;20041;-74
2022/10/05 10:08:22;;;;;;;2.90;1.63;;;15.70;99.90;;;;;;5019339;28;20118;-74
2022/10/05 10:10:58;;;;;;;2.33;1.42;;;15.70;99.90;;;;;;5021623;28;20384;-74
2022/10/05 10:13:52;;;;;;;2.65;1.75;;;15.70;99.90;;;;;;5021125;28;20038;-74
2022/10/05 10:16:48;;;;;;;2.90;1.60;;;15.70;99.90;;;;;;5021508;28;20120;-74
2022/10/05 10:19:55;;;;;;;2.47;1.60;;;15.70;99.90;;;;;;5021931;28;20041;-74
2022/10/05 10:22:34;;;;;;;3.83;1.83;;;15.70;99.90;;;;;;5020573;28;20095;-74
2022/10/05 10:25:12;;;;;;;2.08;1.30;;;15.70;99.90;;;;;;5018776;28;20127;-74
2022/10/05 10:27:53;;;;;;;3.05;1.80;;;15.70;99.90;;;;;;5015885;28;20064;-74
2022/10/05 10:30:52;;;;;;;2.92;1.95;;;15.80;99.90;;;;;;5019483;28;20045;-74
2022/10/05 10:33:41;;;;;;;5.20;1.65;;;15.70;99.90;;;;;;5005017;28;20041;-74
2022/10/05 10:36:23;;;;;;;3.17;1.88;;;15.70;99.90;;;;;;5017607;28;21532;-72
2022/10/05 10:38:57;;;;;;;2.58;1.50;;;15.80;99.90;;;;;;5015304;28;20698;-73
2022/10/05 10:41:33;;;;;;;3.10;1.65;;;15.70;99.90;;;;;;5014925;28;20053;-73
2022/10/05 10:44:20;;;;;;;4.03;1.40;;;15.80;99.90;;;;;;5017243;28;20057;-73
2022/10/05 10:47:11;;;;;;;3.58;1.77;;;15.80;99.90;;;;;;5017980;28;20469;-73
2022/10/05 10:49:40;;;;;;;2.97;1.80;;;15.80;99.90;;;;;;5020204;28;20041;-74
2022/10/05 10:52:38;;;;;;;2.63;1.77;;;15.80;99.90;;;;;;4998189;28;20042;-74
2022/10/05 10:55:17;;;;;;;2.70;1.40;;;15.80;99.90;;;;;;5016173;28;20045;-73
2022/10/05 10:58:01;;;;;;;2.80;2.00;;;15.80;99.90;;;;;;4990214;28;20048;-73
2022/10/05 11:00:45;;;;;;;4.68;1.85;;;15.90;99.90;;;;;;5000542;28;20842;-73
2022/10/05 11:03:28;;;;;;;4.80;2.10;;;15.90;99.90;;;;;;5012337;28;20494;-73
2022/10/05 11:06:19;;;;;;;3.03;1.58;;;15.90;99.90;;;;;;5018894;28;20067;-74
2022/10/05 11:09:10;;;;;;;6.32;1.63;;;16.00;99.90;;;;;;5014154;28;20057;-73
2022/10/05 11:11:57;;;;;;;2.55;1.73;;;16.00;99.90;;;;;;5019344;28;20128;-74
2022/10/05 11:14:46;;;;;;;2.70;1.65;;;16.00;99.90;;;;;;5014052;28;20096;-74
2022/10/05 11:18:01;;;;;;;4.10;1.83;;;16.10;99.90;;;;;;5020383;28;20061;-74
2022/10/05 11:20:37;;;;;;;2.38;1.67;;;16.10;99.90;;;;;;5013146;28;20037;-73
2022/10/05 11:23:16;;;;;;;3.28;2.00;;;16.10;99.90;;;;;;5011578;28;20124;-73
2022/10/05 11:25:55;;;;;;;2.70;1.83;;;16.10;99.90;;;;;;4991871;28;20064;-73
2022/10/05 11:28:53;;;;;;;2.25;1.42;;;16.10;99.90;;;;;;4992963;28;20049;-74
2022/10/05 11:31:48;;;;;;;2.75;1.80;;;16.20;99.90;;;;;;5000083;28;20037;-73
2022/10/05 11:34:38;;;;;;;2.85;1.55;;;16.20;99.90;;;;;;5016611;28;20041;-74
2022/10/05 11:37:28;;;;;;;3.78;2.00;;;16.20;99.90;;;;;;5031556;28;20087;-74
2022/10/05 11:40:06;;;;;;;2.88;1.25;;;16.20;99.90;;;;;;5012636;28;20037;-73
2022/10/05 11:43:03;;;;;;;4.88;1.73;;;16.20;99.90;;;;;;5012142;28;20042;-73
2022/10/05 11:45:49;;;;;;;2.47;1.45;;;16.20;99.90;;;;;;4992425;28;20042;-73
2022/10/05 11:48:33;;;;;;;2.28;1.35;;;16.20;99.90;;;;;;4995069;28;20045;-74
2022/10/05 11:51:41;;;;;;;4.10;1.67;;;16.20;99.90;;;;;;5010473;28;20041;-74
2022/10/05 11:54:25;;;;;;;4.18;1.75;;;16.20;99.90;;;;;;5009136;28;21011;-73
2022/10/05 11:57:18;;;;;;;3.45;2.17;;;16.20;99.90;;;;;;5012590;28;20132;-73
2022/10/05 12:00:05;;;;;;;2.75;1.38;;;16.20;99.90;;;;;;5020014;28;20061;-74
2022/10/05 12:02:56;;;;;;;2.97;1.25;;;16.10;99.90;;;;;;5032432;28;20041;-74
2022/10/05 12:05:47;;;;;;;1.88;0.95;;;16.20;99.90;;;;;;5012637;28;20120;-73
2022/10/05 12:08:47;;;;;;;4.57;1.40;;;16.20;99.90;;;;;;5017360;28;20183;-73
2022/10/05 12:11:16;;;;;;;4.93;1.23;;;16.20;99.90;;;;;;5005497;28;20045;-74
2022/10/05 12:14:12;;;;;;;2.45;1.27;;;16.10;99.90;;;;;;5009922;28;20053;-80
2022/10/05 12:16:49;;;;;;;1.67;1.00;;;16.10;99.90;;;;;;4997136;28;20128;-73
2022/10/05 12:19:35;;;;;;;4.40;1.27;;;16.10;99.90;;;;;;5018955;28;20057;-73
2022/10/05 12:22:08;;;;;;;2.38;1.35;;;16.10;99.90;;;;;;5024409;28;20049;-73
2022/10/05 12:24:34;;;;;;;1.70;1.00;;;16.10;99.90;;;;;;5007890;28;20399;-73
2022/10/05 12:27:21;;;;;;;2.83;1.25;;;16.10;99.90;;;;;;5006360;28;20042;-73
2022/10/05 12:30:01;;;;;;;2.60;1.60;;;16.10;99.90;;;;;;4994775;28;20042;-73
2022/10/05 12:33:10;;;;;;;2.10;1.38;;;16.10;99.90;;;;;;5026016;28;20289;-73
2022/10/05 12:36:02;;;;;;;2.75;1.20;;;16.10;99.90;;;;;;5005326;28;20403;-73
2022/10/05 12:38:44;;;;;;;2.10;1.13;;;16.10;99.90;;;;;;5026602;28;20473;-73
2022/10/05 12:41:21;;;;;;;1.85;1.13;;;16.10;99.90;;;;;;5026309;28;20490;-73
2022/10/05 12:43:57;;;;;;;2.53;1.42;;;16.10;99.90;;;;;;5026902;28;20513;-73
2022/10/05 12:46:29;;;;;;;3.08;1.35;;;16.10;99.90;;;;;;5008998;28;20044;-73
2022/10/05 12:49:03;;;;;;;2.45;1.40;;;16.10;99.90;;;;;;5027051;28;20049;-73
2022/10/05 12:51:44;;;;;;;1.55;1.13;;;16.10;99.90;;;;;;5008107;28;20041;-73
2022/10/05 12:54:15;;;;;;;2.13;1.42;;;16.10;99.90;;;;;;5010884;28;20519;-73
2022/10/05 12:56:56;;;;;;;1.80;1.20;;;16.10;99.90;;;;;;5015102;28;20525;-73
2022/10/05 12:59:45;;;;;;;2.35;1.50;;;16.10;99.90;;;;;;5027374;28;20041;-73
2022/10/05 13:02:43;;;;;;;3.67;1.70;;;16.10;99.90;;;;;;5026146;28;20088;-73
2022/10/05 13:05:08;;;;;;;4.05;1.65;;;16.20;99.90;;;;;;5030378;28;20403;-73
2022/10/05 13:07:46;;;;;;;3.05;1.75;;;16.20;99.90;;;;;;5029786;28;20056;-73
2022/10/05 13:10:23;;;;;;;4.65;1.85;;;16.20;99.90;;;;;;5030284;28;20041;-73
2022/10/05 13:13:24;;;;;;;2.58;1.52;;;16.20;99.90;;;;;;5028870;28;20570;-73
2022/10/05 13:15:56;;;;;;;4.15;1.67;;;16.20;99.90;;;;;;5027976;28;20505;-73
2022/10/05 13:18:28;;;;;;;1.70;1.15;;;16.20;99.90;;;;;;5028299;28;20541;-73
2022/10/05 13:21:26;;;;;;;3.17;1.27;;;16.20;99.90;;;;;;5028313;28;20059;-73
2022/10/05 13:24:16;;;;;;;2.33;1.65;;;16.30;99.90;;;;;;5010806;28;20377;-73
2022/10/05 13:26:47;;;;;;;2.60;1.58;;;16.30;99.90;;;;;;5009179;28;20073;-73
2022/10/05 13:29:26;;;;;;;2.92;1.60;;;16.40;99.90;;;;;;5014751;28;20120;-73
2022/10/05 13:32:09;;;;;;;2.63;1.52;;;16.40;99.90;;;;;;5029256;28;20033;-73
2022/10/05 13:35:04;;;;;;;2.25;1.63;;;16.50;99.90;;;;;;5029970;28;20037;-73
2022/10/05 13:37:56;;;;;;;1.88;1.20;;;16.60;99.90;;;;;;5013501;28;20046;-73
2022/10/05 13:40:42;;;;;;;3.60;1.50;;;16.60;99.90;;;;;;5013175;28;20041;-73
2022/10/05 13:43:31;;;;;;;1.85;1.10;;;16.60;99.90;;;;;;5026809;28;20252;-73
2022/10/05 13:46:10;;;;;;;1.83;1.10;;;16.60;99.90;;;;;;5012929;28;20087;-73
2022/10/05 13:49:03;;;;;;;2.58;1.30;;;16.70;99.90;;;;;;5029962;28;20081;-73
2022/10/05 13:52:01;;;;;;;2.97;1.27;;;16.60;99.90;;;;;;5024605;28;20048;-73
2022/10/05 13:54:54;;;;;;;1.98;1.20;;;16.60;99.90;;;;;;5017867;28;20551;-73
2022/10/05 13:57:32;;;;;;;2.28;1.42;;;16.70;99.90;;;;;;5000094;28;20096;-73
2022/10/05 14:00:04;;;;;;;2.30;1.30;;;16.70;99.90;;;;;;5018057;28;20089;-73
2022/10/05 14:02:37;;;;;;;1.70;1.00;;;16.70;99.90;;;;;;5000433;28;20069;-73
2022/10/05 14:05:28;;;;;;;2.60;1.58;;;16.70;99.90;;;;;;5002796;28;20400;-73
2022/10/05 14:08:03;;;;;;;2.45;1.10;;;16.70;99.90;;;;;;4996323;28;20120;-73
2022/10/05 14:10:40;;;;;;;2.80;1.13;;;16.70;99.90;;;;;;5021871;28;20045;-73
2022/10/05 14:13:21;;;;;;;1.83;1.25;;;16.70;99.90;;;;;;5021104;28;20303;-73
2022/10/05 14:16:03;;;;;;;3.00;1.23;;;16.70;99.90;;;;;;4992086;28;20091;-71